Time;durP1;ratioP1;P1;durP2;ratioP2;P2;SDS_P1;SDS_P2;PMS_P1;PMS_P2;Temp;Humidity;BMP_temperature;BMP_pressure;BME280_temperature;BME280_humidity;BME280_pressure;Samples;Min_cycle;Max_cycle;Signal;HPM_P1;HPM_P2
2022/07/26 00:00:32;;;;;;;4.55;2.88;;;;;;;;;;5066728;28;20128;-74
2022/07/26 00:02:58;;;;;;;6.68;3.22;;;;;;;;;;5081026;28;20053;-74
2022/07/26 00:05:24;;;;;;;4.38;2.95;;;;;;;;;;5074216;28;20037;-73
2022/07/26 00:08:09;;;;;;;6.78;3.00;;;;;;;;;;5076041;28;20044;-74
2022/07/26 00:10:35;;;;;;;5.95;2.70;;;;;;;;;;5080143;28;20065;-74
2022/07/26 00:13:01;;;;;;;5.53;2.83;;;;;;;;;;5082531;28;20048;-74
2022/07/26 00:15:27;;;;;;;5.78;2.95;;;;;;;;;;5074681;28;20045;-74
2022/07/26 00:17:53;;;;;;;6.32;3.05;;;;;;;;;;5083397;28;20062;-75
2022/07/26 00:20:19;;;;;;;7.72;3.00;;;;;;;;;;5077909;28;20096;-75
2022/07/26 00:22:45;;;;;;;5.65;3.10;;;;;;;;;;5073943;28;20081;-74
2022/07/26 00:25:11;;;;;;;5.75;2.90;;;;;;;;;;5072125;28;20072;-74
2022/07/26 00:27:37;;;;;;;6.50;3.00;;;;;;;;;;5080804;28;20049;-74
2022/07/26 00:30:07;;;;;;;9.35;3.40;;;;;;;;;;5082198;28;20040;-74
2022/07/26 00:32:33;;;;;;;5.32;3.05;;;;;;;;;;5065169;28;20061;-74
2022/07/26 00:34:59;;;;;;;8.65;3.08;;;;;;;;;;5073530;28;20049;-74
2022/07/26 00:37:25;;;;;;;7.32;3.15;;;;;;;;;;5066419;28;20049;-74
2022/07/26 00:39:51;;;;;;;7.47;3.58;;;;;;;;;;5061143;28;20044;-74
2022/07/26 00:42:17;;;;;;;6.88;3.00;;;;;;;;;;5073192;28;20044;-74
2022/07/26 00:47:19;;;;;;;8.20;2.95;;;;;;;;;;5090014;28;20040;-75
2022/07/26 00:49:45;;;;;;;5.43;2.80;;;;;;;;;;5087723;28;20135;-76
2022/07/26 00:52:11;;;;;;;4.32;2.95;;;;;;;;;;5088868;28;20052;-77
2022/07/26 00:54:38;;;;;;;6.78;3.28;;;;;;;;;;5094063;28;20531;-77
2022/07/26 00:57:04;;;;;;;9.02;3.35;;;;;;;;;;5094196;28;20056;-76
2022/07/26 00:59:30;;;;;;;8.52;3.20;;;;;;;;;;5092654;28;20050;-76
2022/07/26 01:01:56;;;;;;;9.40;3.28;;;;;;;;;;5090980;28;20116;-76
2022/07/26 01:04:22;;;;;;;8.20;3.47;;;;;;;;;;5093615;28;20456;-76
2022/07/26 01:06:49;;;;;;;8.07;3.60;;;;;;;;;;5091971;28;20384;-76
2022/07/26 01:09:16;;;;;;;6.35;3.28;;;;;;;;;;5093930;28;20094;-76
2022/07/26 01:11:42;;;;;;;7.13;3.30;;;;;;;;;;5092933;28;20040;-77
2022/07/26 01:14:08;;;;;;;9.43;3.63;;;;;;;;;;5092101;28;20052;-77
2022/07/26 01:16:34;;;;;;;8.32;3.85;;;;;;;;;;5092554;28;20104;-77
2022/07/26 01:19:00;;;;;;;7.53;3.92;;;;;;;;;;5092583;28;20100;-76
2022/07/26 01:21:28;;;;;;;9.95;4.10;;;;;;;;;;5089902;28;20171;-76
2022/07/26 01:23:54;;;;;;;5.93;3.60;;;;;;;;;;5092283;28;20104;-77
2022/07/26 01:26:20;;;;;;;7.75;4.13;;;;;;;;;;5091734;28;20055;-76
2022/07/26 01:28:48;;;;;;;11.00;4.07;;;;;;;;;;5093852;28;20040;-76
2022/07/26 01:31:14;;;;;;;7.68;3.70;;;;;;;;;;5092930;28;20047;-75
2022/07/26 01:33:41;;;;;;;7.53;3.40;;;;;;;;;;5092048;28;20048;-76
2022/07/26 01:36:08;;;;;;;8.18;3.78;;;;;;;;;;5097519;28;20544;-75
2022/07/26 01:38:34;;;;;;;11.00;3.28;;;;;;;;;;5094026;28;20047;-75
2022/07/26 01:41:00;;;;;;;12.55;3.28;;;;;;;;;;5090890;28;20044;-76
2022/07/26 01:43:26;;;;;;;10.70;3.53;;;;;;;;;;5093259;28;20040;-77
2022/07/26 01:45:52;;;;;;;9.98;3.47;;;;;;;;;;5090419;28;20063;-77
2022/07/26 01:48:18;;;;;;;11.38;4.05;;;;;;;;;;5069468;28;20049;-76
2022/07/26 01:50:44;;;;;;;8.48;3.22;;;;;;;;;;5068231;28;20045;-77
2022/07/26 01:53:10;;;;;;;10.25;3.85;;;;;;;;;;5068565;28;20040;-77
2022/07/26 01:55:36;;;;;;;8.73;3.35;;;;;;;;;;5088291;28;20056;-76
2022/07/26 01:58:06;;;;;;;9.85;3.47;;;;;;;;;;5074097;28;20056;-76
2022/07/26 02:00:32;;;;;;;8.60;3.42;;;;;;;;;;5076098;28;20134;-77
2022/07/26 02:02:58;;;;;;;8.50;2.90;;;;;;;;;;5076058;28;20045;-76
2022/07/26 02:05:24;;;;;;;7.25;2.85;;;;;;;;;;5074286;28;20048;-76
2022/07/26 02:07:50;;;;;;;9.85;2.67;;;;;;;;;;5055342;28;20132;-76
2022/07/26 02:10:17;;;;;;;8.25;2.50;;;;;;;;;;5087720;28;20040;-77
2022/07/26 02:12:43;;;;;;;6.95;2.60;;;;;;;;;;5079120;28;20067;-77
2022/07/26 02:15:10;;;;;;;8.05;2.38;;;;;;;;;;5068846;28;20045;-77
2022/07/26 02:17:36;;;;;;;5.05;2.35;;;;;;;;;;5073767;28;20044;-77
2022/07/26 02:20:03;;;;;;;8.80;2.70;;;;;;;;;;5077983;28;20056;-76
2022/07/26 02:22:32;;;;;;;7.07;2.67;;;;;;;;;;5076915;28;20048;-77
2022/07/26 02:24:58;;;;;;;7.45;2.67;;;;;;;;;;5075932;28;20047;-77
2022/07/26 02:27:24;;;;;;;8.88;2.33;;;;;;;;;;5076351;28;20419;-77
2022/07/26 02:29:50;;;;;;;11.02;2.70;;;;;;;;;;5084287;28;20496;-77
2022/07/26 02:32:16;;;;;;;12.23;3.25;;;;;;;;;;5063629;28;20049;-77
2022/07/26 02:34:42;;;;;;;7.88;2.30;;;;;;;;;;5076262;28;20178;-76
2022/07/26 02:37:08;;;;;;;5.90;2.22;;;;;;;;;;5076809;28;20059;-76
2022/07/26 02:39:34;;;;;;;5.18;2.25;;;;;;;;;;5077398;28;20399;-76
2022/07/26 02:42:01;;;;;;;6.88;2.17;;;;;;;;;;5075815;28;20048;-76
2022/07/26 02:44:27;;;;;;;7.65;2.10;;;;;;;;;;5089637;28;20484;-77
2022/07/26 02:46:53;;;;;;;6.53;2.08;;;;;;;;;;5076349;28;20137;-77
2022/07/26 02:49:20;;;;;;;7.38;2.33;;;;;;;;;;5076485;28;20044;-76
2022/07/26 02:51:46;;;;;;;5.93;1.90;;;;;;;;;;5081025;28;20038;-77
2022/07/26 02:54:13;;;;;;;5.65;2.33;;;;;;;;;;5061374;28;20063;-77
2022/07/26 02:56:39;;;;;;;3.55;1.80;;;;;;;;;;5074921;28;20464;-77
2022/07/26 02:59:06;;;;;;;5.95;1.75;;;;;;;;;;5074978;28;20048;-77
2022/07/26 03:01:34;;;;;;;4.40;1.90;;;;;;;;;;5069113;28;20104;-77
2022/07/26 03:04:00;;;;;;;5.43;2.10;;;;;;;;;;5067513;28;20087;-77
2022/07/26 03:06:26;;;;;;;3.70;1.70;;;;;;;;;;5074316;28;20109;-77
2022/07/26 03:08:53;;;;;;;4.82;1.65;;;;;;;;;;5076459;28;20048;-77
2022/07/26 03:11:22;;;;;;;3.35;1.55;;;;;;;;;;5077410;28;20044;-77
2022/07/26 03:13:48;;;;;;;3.85;1.70;;;;;;;;;;5078619;28;20507;-78
2022/07/26 03:16:14;;;;;;;3.55;1.75;;;;;;;;;;5072031;28;20076;-77
2022/07/26 03:18:40;;;;;;;7.90;1.90;;;;;;;;;;5096438;28;20043;-77
2022/07/26 03:21:06;;;;;;;6.07;2.15;;;;;;;;;;5078977;28;20071;-77
2022/07/26 03:23:33;;;;;;;6.93;1.92;;;;;;;;;;5074474;28;20110;-77
2022/07/26 03:26:00;;;;;;;6.85;2.13;;;;;;;;;;5075086;28;20392;-77
2022/07/26 03:28:28;;;;;;;6.15;2.00;;;;;;;;;;5076149;28;20170;-76
2022/07/26 03:30:54;;;;;;;8.55;1.88;;;;;;;;;;5078815;28;20048;-76
2022/07/26 03:33:20;;;;;;;6.25;1.95;;;;;;;;;;5094944;28;20074;-75
2022/07/26 03:35:46;;;;;;;7.38;2.20;;;;;;;;;;5080529;28;20094;-76
2022/07/26 03:38:12;;;;;;;5.97;2.15;;;;;;;;;;5074542;28;20052;-77
2022/07/26 03:40:38;;;;;;;6.70;1.90;;;;;;;;;;5073467;28;20122;-77
2022/07/26 03:43:04;;;;;;;7.95;2.10;;;;;;;;;;5074993;28;20044;-77
2022/07/26 03:45:30;;;;;;;6.43;1.92;;;;;;;;;;5066982;28;20079;-77
2022/07/26 03:47:56;;;;;;;4.40;1.88;;;;;;;;;;5055192;28;20053;-77
2022/07/26 03:50:22;;;;;;;3.88;1.73;;;;;;;;;;5072982;28;20067;-77
2022/07/26 03:52:48;;;;;;;2.17;1.48;;;;;;;;;;5075411;28;20499;-77
2022/07/26 03:57:59;;;;;;;4.28;1.90;;;;;;;;;;5075488;28;20048;-76
2022/07/26 04:00:28;;;;;;;4.13;1.40;;;;;;;;;;5082669;28;20514;-76
2022/07/26 04:02:54;;;;;;;6.38;1.83;;;;;;;;;;5095252;28;20048;-76
2022/07/26 04:05:20;;;;;;;7.22;2.00;;;;;;;;;;5082986;28;20040;-76
2022/07/26 04:07:46;;;;;;;6.10;1.80;;;;;;;;;;5075156;28;20044;-77
2022/07/26 04:10:14;;;;;;;5.93;1.80;;;;;;;;;;5074428;28;20036;-77
2022/07/26 04:12:41;;;;;;;3.92;1.70;;;;;;;;;;5074982;28;20051;-77
2022/07/26 04:15:07;;;;;;;6.75;2.10;;;;;;;;;;5073577;28;20479;-77
2022/07/26 04:17:37;;;;;;;6.68;2.17;;;;;;;;;;5073589;28;20427;-77
2022/07/26 04:20:05;;;;;;;7.65;2.08;;;;;;;;;;5075010;28;20044;-77
2022/07/26 04:22:31;;;;;;;5.43;2.00;;;;;;;;;;5078063;28;20040;-77
2022/07/26 04:24:57;;;;;;;7.82;2.40;;;;;;;;;;5087163;28;20032;-77
2022/07/26 04:27:23;;;;;;;7.38;2.10;;;;;;;;;;5074420;28;20048;-77
2022/07/26 04:29:49;;;;;;;7.40;2.13;;;;;;;;;;5073784;28;20047;-77
2022/07/26 04:32:15;;;;;;;4.32;1.55;;;;;;;;;;5074327;28;20044;-77
2022/07/26 04:34:41;;;;;;;5.25;1.98;;;;;;;;;;5073084;28;20066;-76
2022/07/26 04:37:07;;;;;;;6.30;1.77;;;;;;;;;;5073970;28;20040;-77
2022/07/26 04:39:33;;;;;;;6.13;1.77;;;;;;;;;;5070795;28;20045;-77
2022/07/26 04:41:59;;;;;;;5.32;1.90;;;;;;;;;;5066895;28;20484;-77
2022/07/26 04:44:25;;;;;;;7.63;1.85;;;;;;;;;;5073553;28;20114;-77
2022/07/26 04:46:51;;;;;;;5.90;2.00;;;;;;;;;;5073895;28;20063;-77
2022/07/26 04:49:17;;;;;;;7.03;2.42;;;;;;;;;;5073908;28;20044;-76
2022/07/26 04:51:43;;;;;;;9.18;2.25;;;;;;;;;;5073288;28;20067;-76
2022/07/26 04:54:09;;;;;;;6.65;2.33;;;;;;;;;;5073396;28;20042;-77
2022/07/26 04:56:35;;;;;;;7.95;2.10;;;;;;;;;;5074292;28;20127;-77
2022/07/26 04:59:01;;;;;;;6.97;1.75;;;;;;;;;;5074113;28;20047;-77
2022/07/26 05:01:27;;;;;;;8.50;2.20;;;;;;;;;;5074868;28;20084;-77
2022/07/26 05:03:53;;;;;;;5.88;2.25;;;;;;;;;;5073582;28;20086;-77
2022/07/26 05:06:19;;;;;;;7.38;2.20;;;;;;;;;;5074204;28;20174;-76
2022/07/26 05:08:45;;;;;;;3.90;1.85;;;;;;;;;;5084242;28;20040;-78
2022/07/26 05:11:11;;;;;;;3.63;2.10;;;;;;;;;;5073490;28;20052;-76
2022/07/26 05:13:37;;;;;;;5.80;1.67;;;;;;;;;;5074189;28;20045;-76
2022/07/26 05:16:03;;;;;;;4.90;1.80;;;;;;;;;;5073289;28;20642;-79
2022/07/26 05:18:30;;;;;;;11.15;1.60;;;;;;;;;;5080415;28;20079;-78
2022/07/26 05:20:56;;;;;;;2.45;1.10;;;;;;;;;;5073887;28;20127;-80
2022/07/26 05:23:22;;;;;;;4.30;1.50;;;;;;;;;;5081646;28;20048;-78
2022/07/26 05:25:48;;;;;;;5.07;1.60;;;;;;;;;;5073368;28;20097;-77
2022/07/26 05:28:14;;;;;;;4.75;1.42;;;;;;;;;;5073720;28;20476;-76
2022/07/26 05:30:44;;;;;;;3.47;1.48;;;;;;;;;;5073176;28;20419;-76
2022/07/26 05:33:10;;;;;;;3.67;1.60;;;;;;;;;;5071977;28;20049;-77
2022/07/26 05:35:36;;;;;;;3.85;1.60;;;;;;;;;;5073748;28;20048;-75
2022/07/26 05:38:02;;;;;;;7.28;2.15;;;;;;;;;;5073292;28;20041;-75
2022/07/26 05:40:28;;;;;;;7.32;2.20;;;;;;;;;;5073689;28;20399;-75
2022/07/26 05:42:54;;;;;;;6.70;2.20;;;;;;;;;;5073906;28;20048;-76
2022/07/26 05:45:20;;;;;;;6.10;1.77;;;;;;;;;;5072770;28;20040;-75
2022/07/26 05:47:49;;;;;;;9.00;2.05;;;;;;;;;;5073272;28;20049;-75
2022/07/26 05:50:15;;;;;;;6.03;2.00;;;;;;;;;;5072277;28;20397;-76
2022/07/26 05:52:41;;;;;;;5.88;2.17;;;;;;;;;;5073201;28;20109;-76
2022/07/26 05:55:07;;;;;;;5.00;1.98;;;;;;;;;;5090190;28;20068;-81
2022/07/26 05:57:35;;;;;;;9.02;2.30;;;;;;;;;;5081108;28;20045;-76
2022/07/26 06:00:01;;;;;;;3.65;1.58;;;;;;;;;;5073631;28;20049;-77
2022/07/26 06:02:30;;;;;;;7.13;1.98;;;;;;;;;;5072941;28;20044;-76
2022/07/26 06:04:56;;;;;;;3.30;1.60;;;;;;;;;;5053574;28;20048;-76
2022/07/26 06:07:22;;;;;;;5.55;1.70;;;;;;;;;;5057179;28;20472;-76
2022/07/26 06:09:48;;;;;;;5.57;1.80;;;;;;;;;;5071269;28;20127;-77
2022/07/26 06:12:14;;;;;;;4.10;1.73;;;;;;;;;;5072190;28;20170;-77
2022/07/26 06:14:40;;;;;;;6.85;2.10;;;;;;;;;;5073930;28;20076;-76
2022/07/26 06:17:06;;;;;;;6.72;1.80;;;;;;;;;;5072593;28;20392;-76
2022/07/26 06:19:32;;;;;;;7.18;1.90;;;;;;;;;;5072627;28;20047;-77
2022/07/26 06:21:58;;;;;;;6.03;1.80;;;;;;;;;;5073495;28;20090;-77
2022/07/26 06:24:24;;;;;;;3.42;1.45;;;;;;;;;;5073262;28;20052;-76
2022/07/26 06:26:52;;;;;;;4.78;1.95;;;;;;;;;;5074560;28;20037;-75
2022/07/26 06:29:18;;;;;;;5.50;1.80;;;;;;;;;;5072751;28;20094;-77
2022/07/26 06:31:44;;;;;;;4.63;1.67;;;;;;;;;;5071941;28;20043;-77
2022/07/26 06:34:10;;;;;;;5.63;1.70;;;;;;;;;;5072811;28;20044;-77
2022/07/26 06:36:36;;;;;;;5.93;1.80;;;;;;;;;;5073324;28;20041;-76
2022/07/26 06:39:02;;;;;;;7.13;2.08;;;;;;;;;;5078810;28;20040;-76
2022/07/26 06:41:28;;;;;;;7.40;2.42;;;;;;;;;;5073007;28;20044;-75
2022/07/26 06:43:54;;;;;;;9.15;2.45;;;;;;;;;;5073288;28;20053;-76
2022/07/26 06:46:20;;;;;;;7.15;2.10;;;;;;;;;;5072406;28;20075;-76
2022/07/26 06:48:47;;;;;;;5.85;2.35;;;;;;;;;;5073846;28;20080;-76
2022/07/26 06:51:13;;;;;;;7.43;2.10;;;;;;;;;;5072474;28;20051;-77
2022/07/26 06:53:39;;;;;;;9.93;2.88;;;;;;;;;;5078274;28;20119;-77
2022/07/26 06:56:05;;;;;;;9.55;2.63;;;;;;;;;;5073957;28;20048;-76
2022/07/26 06:58:31;;;;;;;8.15;2.72;;;;;;;;;;5076329;28;20040;-76
2022/07/26 07:00:57;;;;;;;7.20;2.30;;;;;;;;;;5076354;28;20045;-76
2022/07/26 07:03:23;;;;;;;9.48;2.25;;;;;;;;;;5076662;28;20041;-76
2022/07/26 07:05:49;;;;;;;9.93;2.53;;;;;;;;;;5063679;28;20053;-75
2022/07/26 07:08:20;;;;;;;10.98;2.67;;;;;;;;;;5059799;28;21413;-77
2022/07/26 07:10:46;;;;;;;9.05;2.58;;;;;;;;;;5076053;28;20045;-76
2022/07/26 07:13:12;;;;;;;8.63;2.55;;;;;;;;;;5075953;28;20144;-76
2022/07/26 07:15:38;;;;;;;8.70;2.55;;;;;;;;;;5077443;28;20487;-74
2022/07/26 07:18:04;;;;;;;6.85;2.30;;;;;;;;;;5089456;28;20384;-77
2022/07/26 07:20:30;;;;;;;6.40;2.50;;;;;;;;;;5075231;28;20108;-76
2022/07/26 07:22:56;;;;;;;8.13;2.72;;;;;;;;;;5096118;28;20449;-76
2022/07/26 07:25:23;;;;;;;9.73;2.78;;;;;;;;;;5083487;28;20045;-76
2022/07/26 07:27:49;;;;;;;9.23;2.80;;;;;;;;;;5075537;28;20080;-81
2022/07/26 07:30:15;;;;;;;8.30;2.40;;;;;;;;;;5075148;28;20048;-76
2022/07/26 07:32:42;;;;;;;8.25;2.30;;;;;;;;;;5060988;28;20126;-76
2022/07/26 07:35:09;;;;;;;7.20;2.30;;;;;;;;;;5056610;28;20152;-76
2022/07/26 07:37:35;;;;;;;6.50;2.40;;;;;;;;;;5069653;28;20040;-77
2022/07/26 07:40:05;;;;;;;5.20;2.35;;;;;;;;;;5071356;28;20044;-76
2022/07/26 07:42:31;;;;;;;6.78;2.30;;;;;;;;;;5078280;28;20123;-76
2022/07/26 07:44:57;;;;;;;6.93;2.30;;;;;;;;;;5072738;28;20479;-76
2022/07/26 07:47:23;;;;;;;9.93;2.65;;;;;;;;;;5075459;28;20129;-76
2022/07/26 07:49:49;;;;;;;5.38;2.40;;;;;;;;;;5075306;28;20110;-75
2022/07/26 07:52:15;;;;;;;11.30;2.58;;;;;;;;;;5075067;28;20078;-76
2022/07/26 07:54:41;;;;;;;6.57;2.10;;;;;;;;;;5073473;28;20496;-76
2022/07/26 07:57:07;;;;;;;4.60;2.33;;;;;;;;;;5063950;28;20041;-77
2022/07/26 07:59:33;;;;;;;17.13;3.95;;;;;;;;;;5073715;28;20426;-77
2022/07/26 08:01:59;;;;;;;15.45;4.05;;;;;;;;;;5069940;28;20107;-76
2022/07/26 08:04:25;;;;;;;14.32;3.75;;;;;;;;;;5074387;28;20131;-76
2022/07/26 08:06:51;;;;;;;10.98;3.33;;;;;;;;;;5074411;28;20044;-77
2022/07/26 08:09:18;;;;;;;13.30;3.30;;;;;;;;;;5074076;28;20404;-76
2022/07/26 08:11:44;;;;;;;10.60;3.30;;;;;;;;;;5074932;28;20043;-76
2022/07/26 08:14:10;;;;;;;10.35;3.17;;;;;;;;;;5075485;28;20488;-76
2022/07/26 08:16:36;;;;;;;12.65;3.55;;;;;;;;;;5068663;28;20540;-77
2022/07/26 08:19:02;;;;;;;12.00;3.38;;;;;;;;;;5060486;28;20055;-77
2022/07/26 08:21:28;;;;;;;10.10;3.60;;;;;;;;;;5071500;28;20134;-77
2022/07/26 08:23:54;;;;;;;16.45;3.90;;;;;;;;;;5059126;28;20125;-76
2022/07/26 08:26:20;;;;;;;10.38;3.10;;;;;;;;;;5076141;28;20097;-75
2022/07/26 08:28:46;;;;;;;9.60;2.97;;;;;;;;;;5073514;28;20070;-75
2022/07/26 08:31:17;;;;;;;12.70;3.38;;;;;;;;;;5074662;28;20040;-76
2022/07/26 08:33:43;;;;;;;13.43;3.28;;;;;;;;;;5072634;28;20049;-76
2022/07/26 08:36:09;;;;;;;12.02;3.60;;;;;;;;;;5057936;28;20075;-75
2022/07/26 08:38:35;;;;;;;9.40;2.78;;;;;;;;;;5057777;28;20041;-76
2022/07/26 08:41:01;;;;;;;11.90;3.10;;;;;;;;;;5059179;28;20049;-75
2022/07/26 08:43:27;;;;;;;9.63;2.80;;;;;;;;;;5090045;28;20050;-76
2022/07/26 08:46:00;;;;;;;10.45;3.22;;;;;;;;;;5077420;28;20499;-76
2022/07/26 08:48:26;;;;;;;13.15;3.45;;;;;;;;;;5072098;28;20102;-76
2022/07/26 08:50:53;;;;;;;8.93;3.00;;;;;;;;;;5074650;28;20044;-76
2022/07/26 08:53:19;;;;;;;13.02;3.00;;;;;;;;;;5074459;28;20086;-80
2022/07/26 08:55:45;;;;;;;13.68;3.15;;;;;;;;;;5074973;28;20322;-76
2022/07/26 08:58:11;;;;;;;8.40;2.53;;;;;;;;;;5072998;28;20076;-76
2022/07/26 09:00:37;;;;;;;8.55;2.97;;;;;;;;;;5074045;28;20505;-77
2022/07/26 09:03:03;;;;;;;8.55;2.53;;;;;;;;;;5073178;28;20045;-76
2022/07/26 09:05:34;;;;;;;8.27;2.58;;;;;;;;;;5073196;28;20076;-76
2022/07/26 09:08:00;;;;;;;7.95;2.38;;;;;;;;;;5072591;28;20119;-76
2022/07/26 09:10:27;;;;;;;12.32;2.65;;;;;;;;;;5073623;28;20041;-76
2022/07/26 09:12:57;;;;;;;8.07;2.50;;;;;;;;;;5073756;28;20044;-76
2022/07/26 09:15:30;;;;;;;6.53;2.22;;;;;;;;;;5073348;28;20051;-76
2022/07/26 09:17:57;;;;;;;7.15;2.40;;;;;;;;;;5068106;28;20083;-76
2022/07/26 09:20:32;;;;;;;11.23;2.72;;;;;;;;;;5072058;28;20047;-76
2022/07/26 09:23:03;;;;;;;9.80;3.00;;;;;;;;;;5073502;28;20052;-75
2022/07/26 09:25:34;;;;;;;8.85;2.55;;;;;;;;;;5073719;28;20045;-75
2022/07/26 09:28:00;;;;;;;7.38;2.58;;;;;;;;;;5073948;28;20045;-75
2022/07/26 09:30:28;;;;;;;8.35;2.47;;;;;;;;;;5074588;28;20107;-75
2022/07/26 09:32:58;;;;;;;8.95;2.80;;;;;;;;;;5073551;28;20050;-75
2022/07/26 09:35:24;;;;;;;5.55;2.38;;;;;;;;;;5076607;28;20043;-75
2022/07/26 09:37:50;;;;;;;6.35;2.40;;;;;;;;;;5071493;28;20063;-75
2022/07/26 09:40:17;;;;;;;7.45;2.17;;;;;;;;;;5073380;28;20148;-76
2022/07/26 09:43:00;;;;;;;8.02;2.25;;;;;;;;;;5073166;28;20475;-75
2022/07/26 09:45:27;;;;;;;5.80;2.28;;;;;;;;;;5072935;28;20048;-76
2022/07/26 09:47:54;;;;;;;8.20;2.13;;;;;;;;;;5073392;28;20178;-75
2022/07/26 09:50:21;;;;;;;8.07;2.20;;;;;;;;;;5076897;28;20040;-81
2022/07/26 09:53:07;;;;;;;7.25;2.38;;;;;;;;;;5073632;28;20519;-75
2022/07/26 09:55:33;;;;;;;;;;;;;;;;;;5072279;28;20055;-75
2022/07/26 09:58:02;;;;;;;7.78;3.08;;;;;;;;;;5073614;28;19921;-75
2022/07/26 10:00:29;;;;;;;6.15;2.35;;;;;;;;;;5072169;28;20239;-75
2022/07/26 10:02:55;;;;;;;7.53;2.40;;;;;;;;;;5055406;28;20420;-81
2022/07/26 10:05:21;;;;;;;4.45;2.17;;;;;;;;;;5072345;28;20058;-78
2022/07/26 10:07:49;;;;;;;8.23;2.20;;;;;;;;;;5072561;28;20442;-75
2022/07/26 10:10:35;;;;;;;5.82;2.42;;;;;;;;;;5073842;28;20048;-74
2022/07/26 10:13:02;;;;;;;6.10;2.25;;;;;;;;;;5073538;28;20051;-75
2022/07/26 10:15:35;;;;;;;6.07;2.22;;;;;;;;;;5073246;28;20043;-75
2022/07/26 10:18:02;;;;;;;7.63;2.10;;;;;;;;;;5073152;28;20116;-75
2022/07/26 10:20:39;;;;;;;5.25;2.33;;;;;;;;;;5072587;28;20091;-75
2022/07/26 10:23:25;;;;;;;6.20;2.10;;;;;;;;;;5073926;28;20119;-75
2022/07/26 10:25:51;;;;;;;5.18;2.00;;;;;;;;;;5073478;28;20439;-75
2022/07/26 10:28:22;;;;;;;7.45;2.28;;;;;;;;;;5072803;28;20509;-76
2022/07/26 10:30:48;;;;;;;5.88;2.20;;;;;;;;;;5072738;28;20529;-75
2022/07/26 10:33:16;;;;;;;4.57;1.90;;;;;;;;;;5057225;28;20438;-75
2022/07/26 10:35:42;;;;;;;9.25;2.33;;;;;;;;;;5075935;28;20132;-73
2022/07/26 10:38:08;;;;;;;15.93;4.32;;;;;;;;;;5076486;28;20094;-75
2022/07/26 10:40:35;;;;;;;12.95;2.78;;;;;;;;;;5090306;28;20043;-75
2022/07/26 10:43:10;;;;;;;6.38;2.40;;;;;;;;;;5075838;28;20036;-75
2022/07/26 10:45:37;;;;;;;6.25;2.05;;;;;;;;;;5075607;28;20044;-75
2022/07/26 10:48:11;;;;;;;9.32;3.15;;;;;;;;;;5076432;28;20041;-75
2022/07/26 10:50:37;;;;;;;9.20;2.65;;;;;;;;;;5074874;28;20080;-75
2022/07/26 10:53:04;;;;;;;22.27;5.90;;;;;;;;;;5076132;28;20045;-76
2022/07/26 10:55:30;;;;;;;9.60;2.40;;;;;;;;;;5088726;28;20047;-76
2022/07/26 10:57:56;;;;;;;8.25;2.22;;;;;;;;;;5087368;28;20129;-76
2022/07/26 11:00:25;;;;;;;8.15;2.40;;;;;;;;;;5075687;28;20036;-76
2022/07/26 11:02:56;;;;;;;5.80;2.17;;;;;;;;;;5074674;28;20048;-76
2022/07/26 11:05:26;;;;;;;5.40;2.17;;;;;;;;;;5075113;28;20097;-75
2022/07/26 11:07:57;;;;;;;6.68;2.15;;;;;;;;;;5074442;28;20450;-75
2022/07/26 11:10:31;;;;;;;7.90;2.60;;;;;;;;;;5060998;28;20052;-75
2022/07/26 11:12:58;;;;;;;11.38;2.40;;;;;;;;;;5067724;28;20483;-76
2022/07/26 11:15:24;;;;;;;8.02;2.58;;;;;;;;;;5055543;28;20507;-76
2022/07/26 11:17:50;;;;;;;12.07;3.42;;;;;;;;;;5055484;28;20045;-76
2022/07/26 11:20:25;;;;;;;10.23;2.70;;;;;;;;;;5069207;28;20044;-77
2022/07/26 11:22:51;;;;;;;6.65;2.00;;;;;;;;;;5075936;28;20072;-76
2022/07/26 11:25:21;;;;;;;12.95;2.40;;;;;;;;;;5090576;28;20075;-76
2022/07/26 11:27:59;;;;;;;5.18;1.80;;;;;;;;;;5094533;28;20189;-75
2022/07/26 11:30:25;;;;;;;8.75;2.30;;;;;;;;;;5094623;28;20044;-75
2022/07/26 11:32:52;;;;;;;5.30;2.10;;;;;;;;;;5083828;28;20056;-75
2022/07/26 11:35:18;;;;;;;5.97;2.03;;;;;;;;;;5074273;28;20036;-76
2022/07/26 11:38:00;;;;;;;5.45;1.98;;;;;;;;;;5075027;28;20051;-76
2022/07/26 11:40:46;;;;;;;5.90;2.28;;;;;;;;;;5074657;28;20499;-76
2022/07/26 11:43:12;;;;;;;9.13;2.38;;;;;;;;;;5074719;28;20047;-76
2022/07/26 11:45:38;;;;;;;3.92;1.90;;;;;;;;;;5074693;28;20071;-75
2022/07/26 11:48:05;;;;;;;4.43;1.88;;;;;;;;;;5073543;28;20044;-76
2022/07/26 11:50:31;;;;;;;6.10;2.25;;;;;;;;;;5075077;28;20045;-76
2022/07/26 11:52:58;;;;;;;6.38;2.08;;;;;;;;;;5075015;28;20123;-75
2022/07/26 11:55:28;;;;;;;5.07;1.92;;;;;;;;;;5074852;28;20499;-75
2022/07/26 11:57:54;;;;;;;4.47;1.70;;;;;;;;;;5074928;28;20067;-76
2022/07/26 12:00:21;;;;;;;4.55;1.70;;;;;;;;;;5074853;28;20044;-75
2022/07/26 12:02:47;;;;;;;6.85;2.10;;;;;;;;;;5073497;28;20491;-74
2022/07/26 12:05:18;;;;;;;5.53;1.90;;;;;;;;;;5071968;28;20362;-75
2022/07/26 12:08:14;;;;;;;4.95;1.83;;;;;;;;;;5054542;28;20051;-75
2022/07/26 12:10:40;;;;;;;4.43;1.95;;;;;;;;;;5041992;28;20148;-75
2022/07/26 12:13:15;;;;;;;4.78;1.90;;;;;;;;;;5053467;28;20110;-75
2022/07/26 12:15:45;;;;;;;4.03;1.70;;;;;;;;;;5070224;28;20044;-76
2022/07/26 12:18:11;;;;;;;3.25;1.88;;;;;;;;;;5054826;28;20080;-75
2022/07/26 12:20:37;;;;;;;6.72;2.00;;;;;;;;;;5054465;28;20117;-75
2022/07/26 12:23:04;;;;;;;5.53;2.00;;;;;;;;;;5054466;28;20056;-75
2022/07/26 12:25:31;;;;;;;4.20;1.92;;;;;;;;;;5054357;28;20059;-76
2022/07/26 12:27:57;;;;;;;6.10;2.08;;;;;;;;;;5054347;28;20103;-75
2022/07/26 12:30:24;;;;;;;6.03;2.25;;;;;;;;;;5055212;28;20452;-82
2022/07/26 12:32:51;;;;;;;5.00;1.90;;;;;;;;;;5072608;28;20044;-75
2022/07/26 12:35:24;;;;;;;4.95;1.73;;;;;;;;;;5072110;28;20059;-75
2022/07/26 12:37:52;;;;;;;14.73;2.33;;;;;;;;;;5075505;28;20187;-75
2022/07/26 12:40:25;;;;;;;5.63;2.20;;;;;;;;;;5073867;28;20585;-76
2022/07/26 12:42:51;;;;;;;4.47;1.63;;;;;;;;;;5074209;28;20041;-75
2022/07/26 12:45:18;;;;;;;3.30;1.60;;;;;;;;;;5073652;28;20036;-75
2022/07/26 12:47:46;;;;;;;4.63;2.10;;;;;;;;;;5073315;28;20060;-75
2022/07/26 12:50:16;;;;;;;4.20;1.75;;;;;;;;;;5074286;28;20048;-76
2022/07/26 12:52:42;;;;;;;3.53;1.60;;;;;;;;;;5093942;28;20051;-75
2022/07/26 12:55:11;;;;;;;3.60;1.80;;;;;;;;;;5093657;28;20098;-75
2022/07/26 12:57:37;;;;;;;5.72;1.63;;;;;;;;;;5090030;28;20045;-75
2022/07/26 13:00:04;;;;;;;3.35;1.90;;;;;;;;;;5073672;28;20402;-75
2022/07/26 13:02:30;;;;;;;5.88;2.00;;;;;;;;;;5072601;28;20083;-75
2022/07/26 13:04:56;;;;;;;7.07;2.20;;;;;;;;;;5072951;28;20052;-74
2022/07/26 13:07:23;;;;;;;6.82;1.80;;;;;;;;;;5073290;28;20377;-75
2022/07/26 13:09:49;;;;;;;6.28;2.10;;;;;;;;;;5073746;28;20052;-76
2022/07/26 13:12:15;;;;;;;3.72;1.60;;;;;;;;;;5073471;28;20045;-75
2022/07/26 13:14:41;;;;;;;4.63;1.90;;;;;;;;;;5071629;28;20075;-76
2022/07/26 13:17:08;;;;;;;3.55;1.90;;;;;;;;;;5073039;28;20036;-76
2022/07/26 13:19:35;;;;;;;5.30;1.90;;;;;;;;;;5072903;28;20119;-75
2022/07/26 13:22:01;;;;;;;4.40;1.65;;;;;;;;;;5073515;28;20499;-75
2022/07/26 13:24:28;;;;;;;8.77;2.10;;;;;;;;;;5072077;28;20055;-76
2022/07/26 13:26:54;;;;;;;6.07;1.70;;;;;;;;;;5071802;28;20070;-76
2022/07/26 13:29:20;;;;;;;4.53;1.80;;;;;;;;;;5072702;28;20083;-77
2022/07/26 13:31:47;;;;;;;4.82;2.00;;;;;;;;;;5072792;28;20080;-76
2022/07/26 13:34:14;;;;;;;5.70;1.80;;;;;;;;;;5073020;28;20049;-77
2022/07/26 13:36:40;;;;;;;6.80;2.30;;;;;;;;;;5079035;28;20059;-75
2022/07/26 13:39:06;;;;;;;5.80;2.00;;;;;;;;;;5072398;28;20160;-75
2022/07/26 13:41:32;;;;;;;3.47;1.90;;;;;;;;;;5072700;28;20410;-75
2022/07/26 13:43:58;;;;;;;4.13;1.73;;;;;;;;;;5073359;28;20512;-75
2022/07/26 13:46:28;;;;;;;5.70;1.70;;;;;;;;;;5072200;28;20048;-74
2022/07/26 13:48:54;;;;;;;5.40;1.65;;;;;;;;;;5071444;28;20047;-75
2022/07/26 13:51:20;;;;;;;5.28;1.70;;;;;;;;;;5090771;28;20391;-75
2022/07/26 13:53:46;;;;;;;5.20;1.75;;;;;;;;;;5091497;28;20499;-75
2022/07/26 13:56:12;;;;;;;3.75;1.75;;;;;;;;;;5091734;28;20469;-75
2022/07/26 13:58:39;;;;;;;4.65;1.80;;;;;;;;;;5092898;28;20075;-76
2022/07/26 14:01:05;;;;;;;3.30;1.63;;;;;;;;;;5071939;28;20059;-75
2022/07/26 14:03:31;;;;;;;4.78;1.77;;;;;;;;;;5072555;28;20106;-75
2022/07/26 14:05:57;;;;;;;4.22;1.67;;;;;;;;;;5080719;28;20053;-82
2022/07/26 14:08:23;;;;;;;5.32;1.60;;;;;;;;;;5076515;28;20063;-74
2022/07/26 14:10:49;;;;;;;4.40;1.75;;;;;;;;;;5076982;28;20415;-75
2022/07/26 14:13:15;;;;;;;3.30;1.65;;;;;;;;;;5075351;28;20530;-75
2022/07/26 14:15:41;;;;;;;4.35;1.30;;;;;;;;;;5077285;28;20387;-74
2022/07/26 14:18:07;;;;;;;4.32;1.77;;;;;;;;;;5076992;28;20072;-75
2022/07/26 14:20:33;;;;;;;3.72;1.60;;;;;;;;;;5077215;28;20511;-75
2022/07/26 14:22:59;;;;;;;4.32;1.60;;;;;;;;;;5076641;28;20411;-75
2022/07/26 14:25:26;;;;;;;2.55;1.52;;;;;;;;;;5076998;28;20049;-75
2022/07/26 14:27:53;;;;;;;5.10;2.22;;;;;;;;;;5076932;28;20041;-75
2022/07/26 14:30:20;;;;;;;4.00;1.90;;;;;;;;;;5076723;28;20044;-75
2022/07/26 14:32:46;;;;;;;2.72;1.67;;;;;;;;;;5058172;28;20510;-75
2022/07/26 14:35:13;;;;;;;3.15;1.60;;;;;;;;;;5076265;28;20045;-75
2022/07/26 14:37:39;;;;;;;4.45;1.73;;;;;;;;;;5076567;28;20048;-75
2022/07/26 14:40:06;;;;;;;4.45;1.90;;;;;;;;;;5076276;28;20487;-75
2022/07/26 14:42:32;;;;;;;3.90;1.50;;;;;;;;;;5074415;28;20519;-76
2022/07/26 14:44:58;;;;;;;5.35;1.83;;;;;;;;;;5073449;28;20037;-75